sensor_id;sensor_type;location;lat;lon;timestamp;temperature;humidity
12115;DHT22;6121;49.810;6.418;2023-04-03T00:00:52;5.70;99.90
12115;DHT22;6121;49.810;6.418;2023-04-03T00:03:19;5.80;99.90
12115;DHT22;6121;49.810;6.418;2023-04-03T00:05:45;5.80;99.90
12115;DHT22;6121;49.810;6.418;2023-04-03T00:08:11;5.90;99.90
12115;DHT22;6121;49.810;6.418;2023-04-03T00:10:38;5.80;99.90
12115;DHT22;6121;49.810;6.418;2023-04-03T00:13:04;5.80;99.90
12115;DHT22;6121;49.810;6.418;2023-04-03T00:15:31;5.90;99.90
12115;DHT22;6121;49.810;6.418;2023-04-03T00:17:58;5.70;99.90
12115;DHT22;6121;49.810;6.418;2023-04-03T00:20:24;5.70;99.90
12115;DHT22;6121;49.810;6.418;2023-04-03T00:22:50;5.80;99.90
12115;DHT22;6121;49.810;6.418;2023-04-03T00:25:16;5.80;99.90
12115;DHT22;6121;49.810;6.418;2023-04-03T00:27:42;5.70;99.90
12115;DHT22;6121;49.810;6.418;2023-04-03T00:30:11;5.70;99.90
12115;DHT22;6121;49.810;6.418;2023-04-03T00:32:38;5.70;99.90
12115;DHT22;6121;49.810;6.418;2023-04-03T00:35:05;5.70;99.90
12115;DHT22;6121;49.810;6.418;2023-04-03T00:37:31;5.80;99.90
12115;DHT22;6121;49.810;6.418;2023-04-03T00:39:57;5.80;99.90
12115;DHT22;6121;49.810;6.418;2023-04-03T00:42:23;5.80;99.90
12115;DHT22;6121;49.810;6.418;2023-04-03T00:47:18;5.70;99.90
12115;DHT22;6121;49.810;6.418;2023-04-03T00:49:45;5.60;99.90
12115;DHT22;6121;49.810;6.418;2023-04-03T00:52:17;5.50;99.90
12115;DHT22;6121;49.810;6.418;2023-04-03T00:54:46;5.20;99.90
12115;DHT22;6121;49.810;6.418;2023-04-03T00:57:14;5.40;99.90
12115;DHT22;6121;49.810;6.418;2023-04-03T00:59:48;5.40;99.90
12115;DHT22;6121;49.810;6.418;2023-04-03T01:02:15;5.40;99.90
12115;DHT22;6121;49.810;6.418;2023-04-03T01:04:43;5.30;99.90
12115;DHT22;6121;49.810;6.418;2023-04-03T01:07:15;5.30;99.90
12115;DHT22;6121;49.810;6.418;2023-04-03T01:09:42;5.20;99.90
12115;DHT22;6121;49.810;6.418;2023-04-03T01:14:52;5.10;99.90
12115;DHT22;6121;49.810;6.418;2023-04-03T01:17:35;5.10;99.90
12115;DHT22;6121;49.810;6.418;2023-04-03T01:23:22;4.90;99.90
12115;DHT22;6121;49.810;6.418;2023-04-03T01:25:53;4.80;99.90
12115;DHT22;6121;49.810;6.418;2023-04-03T01:28:23;4.70;99.90
12115;DHT22;6121;49.810;6.418;2023-04-03T01:33:39;4.40;99.90
12115;DHT22;6121;49.810;6.418;2023-04-03T01:36:06;4.20;99.90
12115;DHT22;6121;49.810;6.418;2023-04-03T01:38:32;4.40;99.90
12115;DHT22;6121;49.810;6.418;2023-04-03T01:40:58;4.20;99.90
12115;DHT22;6121;49.810;6.418;2023-04-03T01:43:24;4.40;99.90
12115;DHT22;6121;49.810;6.418;2023-04-03T01:45:50;4.40;99.90
12115;DHT22;6121;49.810;6.418;2023-04-03T01:48:19;4.10;99.90
12115;DHT22;6121;49.810;6.418;2023-04-03T01:50:45;4.10;99.90
12115;DHT22;6121;49.810;6.418;2023-04-03T01:53:11;4.30;99.90
12115;DHT22;6121;49.810;6.418;2023-04-03T01:55:37;4.10;99.90
12115;DHT22;6121;49.810;6.418;2023-04-03T01:58:03;4.10;99.90
12115;DHT22;6121;49.810;6.418;2023-04-03T02:00:29;3.90;99.90
12115;DHT22;6121;49.810;6.418;2023-04-03T02:02:55;3.90;99.90
12115;DHT22;6121;49.810;6.418;2023-04-03T02:05:21;3.90;99.90
12115;DHT22;6121;49.810;6.418;2023-04-03T02:07:47;4.00;99.90
12115;DHT22;6121;49.810;6.418;2023-04-03T02:10:13;3.90;99.90
12115;DHT22;6121;49.810;6.418;2023-04-03T02:12:39;4.00;99.90
12115;DHT22;6121;49.810;6.418;2023-04-03T02:15:05;4.00;99.90
12115;DHT22;6121;49.810;6.418;2023-04-03T02:17:31;3.80;99.90
12115;DHT22;6121;49.810;6.418;2023-04-03T02:19:57;3.80;99.90
12115;DHT22;6121;49.810;6.418;2023-04-03T02:22:23;3.80;99.90
12115;DHT22;6121;49.810;6.418;2023-04-03T02:24:50;3.70;99.90
12115;DHT22;6121;49.810;6.418;2023-04-03T02:27:17;3.70;99.90
12115;DHT22;6121;49.810;6.418;2023-04-03T02:29:43;3.70;99.90
12115;DHT22;6121;49.810;6.418;2023-04-03T02:32:09;3.60;99.90
12115;DHT22;6121;49.810;6.418;2023-04-03T02:34:35;3.60;99.90
12115;DHT22;6121;49.810;6.418;2023-04-03T02:37:01;3.60;99.90
12115;DHT22;6121;49.810;6.418;2023-04-03T02:39:28;3.70;99.90
12115;DHT22;6121;49.810;6.418;2023-04-03T02:41:55;3.40;99.90
12115;DHT22;6121;49.810;6.418;2023-04-03T02:44:23;3.30;99.90
12115;DHT22;6121;49.810;6.418;2023-04-03T02:46:50;3.00;99.90
12115;DHT22;6121;49.810;6.418;2023-04-03T02:49:16;3.00;99.90
12115;DHT22;6121;49.810;6.418;2023-04-03T02:51:42;3.00;99.90
12115;DHT22;6121;49.810;6.418;2023-04-03T02:54:09;2.80;99.90
12115;DHT22;6121;49.810;6.418;2023-04-03T02:56:38;2.90;99.90
12115;DHT22;6121;49.810;6.418;2023-04-03T02:59:04;2.90;99.90
12115;DHT22;6121;49.810;6.418;2023-04-03T03:01:32;3.00;99.90
12115;DHT22;6121;49.810;6.418;2023-04-03T03:03:59;2.70;99.90
12115;DHT22;6121;49.810;6.418;2023-04-03T03:06:26;2.60;99.90
12115;DHT22;6121;49.810;6.418;2023-04-03T03:08:52;2.70;99.90
12115;DHT22;6121;49.810;6.418;2023-04-03T03:11:18;2.70;99.90
12115;DHT22;6121;49.810;6.418;2023-04-03T03:13:44;2.90;99.90
12115;DHT22;6121;49.810;6.418;2023-04-03T03:16:10;2.80;99.90
12115;DHT22;6121;49.810;6.418;2023-04-03T03:18:36;2.70;99.90
12115;DHT22;6121;49.810;6.418;2023-04-03T03:21:03;2.50;99.90
12115;DHT22;6121;49.810;6.418;2023-04-03T03:23:31;2.50;99.90
12115;DHT22;6121;49.810;6.418;2023-04-03T03:25:59;2.30;99.90
12115;DHT22;6121;49.810;6.418;2023-04-03T03:28:26;2.20;99.90
12115;DHT22;6121;49.810;6.418;2023-04-03T03:30:52;2.10;99.90
12115;DHT22;6121;49.810;6.418;2023-04-03T03:33:19;2.00;99.90
12115;DHT22;6121;49.810;6.418;2023-04-03T03:35:45;2.00;99.90
12115;DHT22;6121;49.810;6.418;2023-04-03T03:38:11;1.90;99.90
12115;DHT22;6121;49.810;6.418;2023-04-03T03:40:37;2.10;99.90
12115;DHT22;6121;49.810;6.418;2023-04-03T03:43:03;1.90;99.90
12115;DHT22;6121;49.810;6.418;2023-04-03T03:45:29;2.00;99.90
12115;DHT22;6121;49.810;6.418;2023-04-03T03:47:56;2.00;99.90
12115;DHT22;6121;49.810;6.418;2023-04-03T03:50:22;1.70;99.90
12115;DHT22;6121;49.810;6.418;2023-04-03T03:52:49;1.80;99.90
12115;DHT22;6121;49.810;6.418;2023-04-03T03:55:15;1.80;99.90
12115;DHT22;6121;49.810;6.418;2023-04-03T03:57:41;1.50;99.90
12115;DHT22;6121;49.810;6.418;2023-04-03T04:00:07;1.60;99.90
12115;DHT22;6121;49.810;6.418;2023-04-03T04:02:41;1.50;99.90
12115;DHT22;6121;49.810;6.418;2023-04-03T04:05:10;1.50;99.90
12115;DHT22;6121;49.810;6.418;2023-04-03T04:07:36;1.60;99.90
12115;DHT22;6121;49.810;6.418;2023-04-03T04:10:03;1.60;99.90
12115;DHT22;6121;49.810;6.418;2023-04-03T04:12:30;1.30;99.90
12115;DHT22;6121;49.810;6.418;2023-04-03T04:14:55;1.20;99.90
12115;DHT22;6121;49.810;6.418;2023-04-03T04:17:21;1.10;99.90
12115;DHT22;6121;49.810;6.418;2023-04-03T04:19:50;1.20;99.90
12115;DHT22;6121;49.810;6.418;2023-04-03T04:22:16;1.30;99.90
12115;DHT22;6121;49.810;6.418;2023-04-03T04:24:43;1.20;99.90
12115;DHT22;6121;49.810;6.418;2023-04-03T04:27:09;1.30;99.90
12115;DHT22;6121;49.810;6.418;2023-04-03T04:29:35;1.30;99.90
12115;DHT22;6121;49.810;6.418;2023-04-03T04:32:04;1.10;99.90
12115;DHT22;6121;49.810;6.418;2023-04-03T04:34:30;1.10;99.90
12115;DHT22;6121;49.810;6.418;2023-04-03T04:36:57;1.10;99.90
12115;DHT22;6121;49.810;6.418;2023-04-03T04:39:24;1.00;99.90
12115;DHT22;6121;49.810;6.418;2023-04-03T04:41:50;1.10;99.90
12115;DHT22;6121;49.810;6.418;2023-04-03T04:44:16;1.20;99.90
12115;DHT22;6121;49.810;6.418;2023-04-03T04:46:42;1.20;99.90
12115;DHT22;6121;49.810;6.418;2023-04-03T04:49:08;1.10;99.90
12115;DHT22;6121;49.810;6.418;2023-04-03T04:51:34;0.90;99.90
12115;DHT22;6121;49.810;6.418;2023-04-03T04:54:00;1.00;99.90
12115;DHT22;6121;49.810;6.418;2023-04-03T04:56:27;0.80;99.90
12115;DHT22;6121;49.810;6.418;2023-04-03T04:58:55;0.90;99.90
12115;DHT22;6121;49.810;6.418;2023-04-03T05:01:22;0.90;99.90
12115;DHT22;6121;49.810;6.418;2023-04-03T05:03:58;0.90;99.90
12115;DHT22;6121;49.810;6.418;2023-04-03T05:06:25;0.70;99.90
12115;DHT22;6121;49.810;6.418;2023-04-03T05:08:52;1.00;99.90
12115;DHT22;6121;49.810;6.418;2023-04-03T05:11:19;0.90;99.90
12115;DHT22;6121;49.810;6.418;2023-04-03T05:13:48;0.80;99.90
12115;DHT22;6121;49.810;6.418;2023-04-03T05:16:14;0.70;99.90
12115;DHT22;6121;49.810;6.418;2023-04-03T05:18:40;0.60;99.90
12115;DHT22;6121;49.810;6.418;2023-04-03T05:21:09;0.60;99.90
12115;DHT22;6121;49.810;6.418;2023-04-03T05:23:35;0.70;99.90
12115;DHT22;6121;49.810;6.418;2023-04-03T05:26:02;0.70;99.90
12115;DHT22;6121;49.810;6.418;2023-04-03T05:28:30;0.60;99.90
12115;DHT22;6121;49.810;6.418;2023-04-03T05:30:57;0.80;99.90
12115;DHT22;6121;49.810;6.418;2023-04-03T05:33:26;0.70;99.90
12115;DHT22;6121;49.810;6.418;2023-04-03T05:35:54;0.80;99.90
12115;DHT22;6121;49.810;6.418;2023-04-03T05:38:25;0.80;99.90
12115;DHT22;6121;49.810;6.418;2023-04-03T05:40:52;0.80;99.90
12115;DHT22;6121;49.810;6.418;2023-04-03T05:43:18;0.70;99.90
12115;DHT22;6121;49.810;6.418;2023-04-03T05:45:46;0.70;99.90
12115;DHT22;6121;49.810;6.418;2023-04-03T05:48:14;0.70;99.90
12115;DHT22;6121;49.810;6.418;2023-04-03T05:50:40;0.90;99.90
12115;DHT22;6121;49.810;6.418;2023-04-03T05:53:35;0.90;99.90
12115;DHT22;6121;49.810;6.418;2023-04-03T05:56:04;0.80;99.90
12115;DHT22;6121;49.810;6.418;2023-04-03T05:58:34;1.10;99.90
12115;DHT22;6121;49.810;6.418;2023-04-03T06:01:00;1.10;99.90
12115;DHT22;6121;49.810;6.418;2023-04-03T06:03:27;1.10;99.90
12115;DHT22;6121;49.810;6.418;2023-04-03T06:05:53;1.30;99.90
12115;DHT22;6121;49.810;6.418;2023-04-03T06:08:19;1.30;99.90
12115;DHT22;6121;49.810;6.418;2023-04-03T06:10:45;1.30;99.90
12115;DHT22;6121;49.810;6.418;2023-04-03T06:13:12;1.60;99.90
12115;DHT22;6121;49.810;6.418;2023-04-03T06:15:38;1.40;99.90
12115;DHT22;6121;49.810;6.418;2023-04-03T06:18:08;1.50;99.90
12115;DHT22;6121;49.810;6.418;2023-04-03T06:20:34;1.50;99.90
12115;DHT22;6121;49.810;6.418;2023-04-03T06:23:00;1.60;99.90
12115;DHT22;6121;49.810;6.418;2023-04-03T06:25:27;1.80;99.90
12115;DHT22;6121;49.810;6.418;2023-04-03T06:27:53;2.00;99.90
12115;DHT22;6121;49.810;6.418;2023-04-03T06:30:21;2.20;99.90
12115;DHT22;6121;49.810;6.418;2023-04-03T06:32:46;2.60;99.90
12115;DHT22;6121;49.810;6.418;2023-04-03T06:35:12;2.60;99.90
12115;DHT22;6121;49.810;6.418;2023-04-03T06:37:38;2.60;99.90
12115;DHT22;6121;49.810;6.418;2023-04-03T06:40:04;2.70;99.90
12115;DHT22;6121;49.810;6.418;2023-04-03T06:42:31;2.90;99.90
12115;DHT22;6121;49.810;6.418;2023-04-03T06:45:07;3.00;99.90
12115;DHT22;6121;49.810;6.418;2023-04-03T06:47:34;3.20;99.90
12115;DHT22;6121;49.810;6.418;2023-04-03T06:50:00;3.40;99.90
12115;DHT22;6121;49.810;6.418;2023-04-03T06:52:27;3.60;99.90
12115;DHT22;6121;49.810;6.418;2023-04-03T06:54:53;3.80;99.90
12115;DHT22;6121;49.810;6.418;2023-04-03T06:57:22;4.00;99.90
12115;DHT22;6121;49.810;6.418;2023-04-03T06:59:48;4.40;99.90
12115;DHT22;6121;49.810;6.418;2023-04-03T07:02:15;4.60;99.90
12115;DHT22;6121;49.810;6.418;2023-04-03T07:04:41;4.60;99.90
12115;DHT22;6121;49.810;6.418;2023-04-03T07:07:07;5.00;99.90
12115;DHT22;6121;49.810;6.418;2023-04-03T07:09:33;5.30;99.90
12115;DHT22;6121;49.810;6.418;2023-04-03T07:11:59;5.50;99.90
12115;DHT22;6121;49.810;6.418;2023-04-03T07:14:25;6.10;99.90
12115;DHT22;6121;49.810;6.418;2023-04-03T07:16:51;6.30;99.90
12115;DHT22;6121;49.810;6.418;2023-04-03T07:19:17;6.60;99.90
12115;DHT22;6121;49.810;6.418;2023-04-03T07:21:44;6.80;99.90
12115;DHT22;6121;49.810;6.418;2023-04-03T07:24:10;6.90;99.90
12115;DHT22;6121;49.810;6.418;2023-04-03T07:26:36;7.30;99.90
12115;DHT22;6121;49.810;6.418;2023-04-03T07:29:02;7.70;99.90
12115;DHT22;6121;49.810;6.418;2023-04-03T07:31:28;7.70;99.90
12115;DHT22;6121;49.810;6.418;2023-04-03T07:33:54;7.70;99.90
12115;DHT22;6121;49.810;6.418;2023-04-03T07:36:22;8.00;99.90
12115;DHT22;6121;49.810;6.418;2023-04-03T07:38:48;8.20;99.90
12115;DHT22;6121;49.810;6.418;2023-04-03T07:41:17;8.40;99.90
12115;DHT22;6121;49.810;6.418;2023-04-03T07:43:43;8.80;99.90
12115;DHT22;6121;49.810;6.418;2023-04-03T07:46:09;8.90;99.90
12115;DHT22;6121;49.810;6.418;2023-04-03T07:48:36;9.10;99.90
12115;DHT22;6121;49.810;6.418;2023-04-03T07:51:05;9.10;99.90
12115;DHT22;6121;49.810;6.418;2023-04-03T07:53:31;9.40;99.90
12115;DHT22;6121;49.810;6.418;2023-04-03T07:55:58;9.50;99.90
12115;DHT22;6121;49.810;6.418;2023-04-03T07:58:24;9.50;99.90
12115;DHT22;6121;49.810;6.418;2023-04-03T08:00:51;9.50;99.80
12115;DHT22;6121;49.810;6.418;2023-04-03T08:03:17;9.40;99.20
12115;DHT22;6121;49.810;6.418;2023-04-03T08:05:45;9.50;98.80
12115;DHT22;6121;49.810;6.418;2023-04-03T08:08:13;9.60;98.70
12115;DHT22;6121;49.810;6.418;2023-04-03T08:10:39;9.80;98.90
12115;DHT22;6121;49.810;6.418;2023-04-03T08:13:06;10.10;97.50
12115;DHT22;6121;49.810;6.418;2023-04-03T08:15:32;9.90;98.30
12115;DHT22;6121;49.810;6.418;2023-04-03T08:17:59;9.90;98.00
12115;DHT22;6121;49.810;6.418;2023-04-03T08:20:26;10.00;97.20
12115;DHT22;6121;49.810;6.418;2023-04-03T08:22:53;10.20;96.90
12115;DHT22;6121;49.810;6.418;2023-04-03T08:25:19;10.40;96.70
12115;DHT22;6121;49.810;6.418;2023-04-03T08:27:45;10.40;95.60
12115;DHT22;6121;49.810;6.418;2023-04-03T08:30:11;10.50;94.90
12115;DHT22;6121;49.810;6.418;2023-04-03T08:32:37;10.80;95.10
12115;DHT22;6121;49.810;6.418;2023-04-03T08:35:04;10.70;94.30
12115;DHT22;6121;49.810;6.418;2023-04-03T08:37:30;11.00;94.60
12115;DHT22;6121;49.810;6.418;2023-04-03T08:39:56;10.90;94.00
12115;DHT22;6121;49.810;6.418;2023-04-03T08:48:14;11.60;93.80
12115;DHT22;6121;49.810;6.418;2023-04-03T08:50:43;11.30;93.60
12115;DHT22;6121;49.810;6.418;2023-04-03T08:53:15;11.00;92.70
12115;DHT22;6121;49.810;6.418;2023-04-03T08:55:47;11.40;92.80
12115;DHT22;6121;49.810;6.418;2023-04-03T08:58:18;11.70;92.90
12115;DHT22;6121;49.810;6.418;2023-04-03T09:00:51;12.00;92.30
12115;DHT22;6121;49.810;6.418;2023-04-03T09:03:21;12.40;92.40
12115;DHT22;6121;49.810;6.418;2023-04-03T09:06:03;12.40;91.40
12115;DHT22;6121;49.810;6.418;2023-04-03T09:08:43;12.10;91.00
12115;DHT22;6121;49.810;6.418;2023-04-03T09:11:27;11.70;91.40
12115;DHT22;6121;49.810;6.418;2023-04-03T09:14:26;12.00;91.40
12115;DHT22;6121;49.810;6.418;2023-04-03T09:17:00;12.30;91.30
12115;DHT22;6121;49.810;6.418;2023-04-03T09:19:41;12.00;90.60
12115;DHT22;6121;49.810;6.418;2023-04-03T09:22:26;12.00;90.30
12115;DHT22;6121;49.810;6.418;2023-04-03T09:27:39;12.00;89.10
12115;DHT22;6121;49.810;6.418;2023-04-03T09:30:11;12.00;88.70
12115;DHT22;6121;49.810;6.418;2023-04-03T09:32:38;12.30;88.90
12115;DHT22;6121;49.810;6.418;2023-04-03T09:37:42;12.70;87.50
12115;DHT22;6121;49.810;6.418;2023-04-03T09:40:30;13.10;86.40
12115;DHT22;6121;49.810;6.418;2023-04-03T09:42:59;13.20;85.30
12115;DHT22;6121;49.810;6.418;2023-04-03T09:45:31;12.90;84.10
12115;DHT22;6121;49.810;6.418;2023-04-03T09:48:12;12.80;83.90
12115;DHT22;6121;49.810;6.418;2023-04-03T09:55:53;11.70;83.70
12115;DHT22;6121;49.810;6.418;2023-04-03T09:58:30;12.60;84.30
12115;DHT22;6121;49.810;6.418;2023-04-03T10:01:01;15.30;81.80
12115;DHT22;6121;49.810;6.418;2023-04-03T10:03:36;15.70;77.00
12115;DHT22;6121;49.810;6.418;2023-04-03T10:06:04;18.10;76.50
12115;DHT22;6121;49.810;6.418;2023-04-03T10:08:40;18.40;68.10
12115;DHT22;6121;49.810;6.418;2023-04-03T10:11:17;21.90;71.30
12115;DHT22;6121;49.810;6.418;2023-04-03T10:14:01;27.30;58.10
12115;DHT22;6121;49.810;6.418;2023-04-03T10:22:20;25.10;42.40
12115;DHT22;6121;49.810;6.418;2023-04-03T10:25:18;23.60;46.40
12115;DHT22;6121;49.810;6.418;2023-04-03T10:28:00;27.10;42.80
12115;DHT22;6121;49.810;6.418;2023-04-03T10:30:55;30.60;41.40
12115;DHT22;6121;49.810;6.418;2023-04-03T10:36:29;30.70;38.60
12115;DHT22;6121;49.810;6.418;2023-04-03T10:39:20;31.80;37.30
12115;DHT22;6121;49.810;6.418;2023-04-03T10:42:15;30.50;35.00
12115;DHT22;6121;49.810;6.418;2023-04-03T10:45:19;29.10;35.60
12115;DHT22;6121;49.810;6.418;2023-04-03T10:56:42;29.10;36.20
12115;DHT22;6121;49.810;6.418;2023-04-03T11:01:48;31.50;32.70
12115;DHT22;6121;49.810;6.418;2023-04-03T11:04:16;29.30;33.30
12115;DHT22;6121;49.810;6.418;2023-04-03T11:06:48;25.70;34.20
12115;DHT22;6121;49.810;6.418;2023-04-03T11:11:53;24.50;36.10
12115;DHT22;6121;49.810;6.418;2023-04-03T11:14:32;26.90;38.30
12115;DHT22;6121;49.810;6.418;2023-04-03T11:20:20;20.30;37.60
12115;DHT22;6121;49.810;6.418;2023-04-03T11:25:40;25.40;40.20
12115;DHT22;6121;49.810;6.418;2023-04-03T11:28:12;25.60;37.00
12115;DHT22;6121;49.810;6.418;2023-04-03T11:30:49;24.40;37.60
12115;DHT22;6121;49.810;6.418;2023-04-03T11:33:24;19.40;38.30
12115;DHT22;6121;49.810;6.418;2023-04-03T11:36:07;17.60;41.50
12115;DHT22;6121;49.810;6.418;2023-04-03T11:38:37;16.70;44.00
12115;DHT22;6121;49.810;6.418;2023-04-03T11:41:08;16.10;44.80
12115;DHT22;6121;49.810;6.418;2023-04-03T11:43:41;14.90;46.70
12115;DHT22;6121;49.810;6.418;2023-04-03T11:46:08;14.70;47.20
12115;DHT22;6121;49.810;6.418;2023-04-03T11:51:47;13.90;47.50
12115;DHT22;6121;49.810;6.418;2023-04-03T11:53:48;13.80;48.30
12115;DHT22;6121;49.810;6.418;2023-04-03T11:59:22;14.50;49.30
12115;DHT22;6121;49.810;6.418;2023-04-03T12:01:56;14.40;48.10
12115;DHT22;6121;49.810;6.418;2023-04-03T12:04:25;14.10;47.80
12115;DHT22;6121;49.810;6.418;2023-04-03T12:07:16;13.90;48.40
12115;DHT22;6121;49.810;6.418;2023-04-03T12:12:36;13.50;47.80
12115;DHT22;6121;49.810;6.418;2023-04-03T12:15:18;13.60;48.50
12115;DHT22;6121;49.810;6.418;2023-04-03T12:17:45;13.90;49.20
12115;DHT22;6121;49.810;6.418;2023-04-03T12:24:22;13.50;48.90
12115;DHT22;6121;49.810;6.418;2023-04-03T12:26:19;13.30;49.00
12115;DHT22;6121;49.810;6.418;2023-04-03T12:28:48;13.00;49.60
12115;DHT22;6121;49.810;6.418;2023-04-03T12:31:15;13.30;49.40
12115;DHT22;6121;49.810;6.418;2023-04-03T12:34:03;13.20;48.70
12115;DHT22;6121;49.810;6.418;2023-04-03T12:39:36;13.40;49.30
12115;DHT22;6121;49.810;6.418;2023-04-03T12:45:19;13.20;47.60
12115;DHT22;6121;49.810;6.418;2023-04-03T12:47:49;12.80;46.90
12115;DHT22;6121;49.810;6.418;2023-04-03T12:50:27;12.70;47.30
12115;DHT22;6121;49.810;6.418;2023-04-03T12:53:06;12.90;47.80
12115;DHT22;6121;49.810;6.418;2023-04-03T12:55:32;12.40;47.40
12115;DHT22;6121;49.810;6.418;2023-04-03T12:58:17;12.30;48.80
12115;DHT22;6121;49.810;6.418;2023-04-03T13:01:03;12.30;48.90
12115;DHT22;6121;49.810;6.418;2023-04-03T13:03:30;12.00;48.90
12115;DHT22;6121;49.810;6.418;2023-04-03T13:06:01;12.10;49.90
12115;DHT22;6121;49.810;6.418;2023-04-03T13:08:29;12.20;49.50
12115;DHT22;6121;49.810;6.418;2023-04-03T13:11:02;12.20;48.00
12115;DHT22;6121;49.810;6.418;2023-04-03T13:13:28;12.10;47.40
12115;DHT22;6121;49.810;6.418;2023-04-03T13:15:56;12.10;47.50
12115;DHT22;6121;49.810;6.418;2023-04-03T13:18:30;12.00;46.70
12115;DHT22;6121;49.810;6.418;2023-04-03T13:21:03;12.00;47.30
12115;DHT22;6121;49.810;6.418;2023-04-03T13:23:30;12.00;46.50
12115;DHT22;6121;49.810;6.418;2023-04-03T13:25:58;12.00;45.80
12115;DHT22;6121;49.810;6.418;2023-04-03T13:28:28;12.10;46.60
12115;DHT22;6121;49.810;6.418;2023-04-03T13:30:59;12.00;46.50
12115;DHT22;6121;49.810;6.418;2023-04-03T13:33:30;12.00;46.80
12115;DHT22;6121;49.810;6.418;2023-04-03T13:36:02;11.90;47.10
12115;DHT22;6121;49.810;6.418;2023-04-03T13:38:32;11.80;46.80
12115;DHT22;6121;49.810;6.418;2023-04-03T13:41:26;11.80;47.40
12115;DHT22;6121;49.810;6.418;2023-04-03T13:43:54;11.90;47.60
12115;DHT22;6121;49.810;6.418;2023-04-03T13:46:25;11.80;46.40
12115;DHT22;6121;49.810;6.418;2023-04-03T13:48:53;11.50;46.50
12115;DHT22;6121;49.810;6.418;2023-04-03T13:51:23;11.60;48.10
12115;DHT22;6121;49.810;6.418;2023-04-03T13:53:54;11.60;49.40
12115;DHT22;6121;49.810;6.418;2023-04-03T13:56:24;11.70;49.60
12115;DHT22;6121;49.810;6.418;2023-04-03T13:59:39;11.80;48.30
12115;DHT22;6121;49.810;6.418;2023-04-03T14:02:13;11.70;47.50
12115;DHT22;6121;49.810;6.418;2023-04-03T14:07:11;11.70;48.20
12115;DHT22;6121;49.810;6.418;2023-04-03T14:09:36;11.60;48.20
12115;DHT22;6121;49.810;6.418;2023-04-03T14:12:17;11.60;48.40
12115;DHT22;6121;49.810;6.418;2023-04-03T14:14:44;11.30;49.00
12115;DHT22;6121;49.810;6.418;2023-04-03T14:17:19;11.20;49.50
12115;DHT22;6121;49.810;6.418;2023-04-03T14:19:48;11.10;50.00
12115;DHT22;6121;49.810;6.418;2023-04-03T14:22:24;11.20;50.60
12115;DHT22;6121;49.810;6.418;2023-04-03T14:24:51;11.10;47.90
12115;DHT22;6121;49.810;6.418;2023-04-03T14:27:23;11.10;48.40
12115;DHT22;6121;49.810;6.418;2023-04-03T14:29:51;11.00;48.90
12115;DHT22;6121;49.810;6.418;2023-04-03T14:32:20;11.10;49.40
12115;DHT22;6121;49.810;6.418;2023-04-03T14:34:49;11.20;49.70
12115;DHT22;6121;49.810;6.418;2023-04-03T14:37:18;11.40;50.40
12115;DHT22;6121;49.810;6.418;2023-04-03T14:39:46;11.20;50.40
12115;DHT22;6121;49.810;6.418;2023-04-03T14:42:22;11.20;51.00
12115;DHT22;6121;49.810;6.418;2023-04-03T14:44:48;11.20;51.20
12115;DHT22;6121;49.810;6.418;2023-04-03T14:47:18;11.30;50.90
12115;DHT22;6121;49.810;6.418;2023-04-03T14:49:44;11.30;50.90
12115;DHT22;6121;49.810;6.418;2023-04-03T14:52:37;11.30;51.20
12115;DHT22;6121;49.810;6.418;2023-04-03T14:55:05;11.20;51.10
12115;DHT22;6121;49.810;6.418;2023-04-03T14:57:31;11.20;51.80
12115;DHT22;6121;49.810;6.418;2023-04-03T14:59:57;11.20;51.20
12115;DHT22;6121;49.810;6.418;2023-04-03T15:02:37;11.10;51.80
12115;DHT22;6121;49.810;6.418;2023-04-03T15:05:06;11.20;52.00
12115;DHT22;6121;49.810;6.418;2023-04-03T15:07:38;11.20;52.40
12115;DHT22;6121;49.810;6.418;2023-04-03T15:10:22;11.30;52.60
12115;DHT22;6121;49.810;6.418;2023-04-03T15:12:49;11.30;52.00
12115;DHT22;6121;49.810;6.418;2023-04-03T15:15:16;11.10;52.10
12115;DHT22;6121;49.810;6.418;2023-04-03T15:17:43;11.00;52.70
12115;DHT22;6121;49.810;6.418;2023-04-03T15:20:22;11.00;53.60
12115;DHT22;6121;49.810;6.418;2023-04-03T15:22:48;11.30;54.30
12115;DHT22;6121;49.810;6.418;2023-04-03T15:25:14;11.30;53.80
12115;DHT22;6121;49.810;6.418;2023-04-03T15:27:40;11.20;53.40
12115;DHT22;6121;49.810;6.418;2023-04-03T15:30:10;11.20;52.90
12115;DHT22;6121;49.810;6.418;2023-04-03T15:32:36;11.00;53.20
12115;DHT22;6121;49.810;6.418;2023-04-03T15:35:02;10.80;53.70
12115;DHT22;6121;49.810;6.418;2023-04-03T15:37:28;10.90;53.80
12115;DHT22;6121;49.810;6.418;2023-04-03T15:39:54;11.00;53.20
12115;DHT22;6121;49.810;6.418;2023-04-03T15:42:20;10.80;53.00
12115;DHT22;6121;49.810;6.418;2023-04-03T15:44:46;10.70;53.20
12115;DHT22;6121;49.810;6.418;2023-04-03T15:47:12;10.80;54.00
12115;DHT22;6121;49.810;6.418;2023-04-03T15:49:38;10.90;53.70
12115;DHT22;6121;49.810;6.418;2023-04-03T15:52:05;10.80;53.00
12115;DHT22;6121;49.810;6.418;2023-04-03T15:54:31;10.80;52.80
12115;DHT22;6121;49.810;6.418;2023-04-03T15:56:57;10.60;52.10
12115;DHT22;6121;49.810;6.418;2023-04-03T15:59:23;10.50;52.10
12115;DHT22;6121;49.810;6.418;2023-04-03T16:01:49;10.50;52.40
12115;DHT22;6121;49.810;6.418;2023-04-03T16:04:16;10.50;52.80
12115;DHT22;6121;49.810;6.418;2023-04-03T16:06:42;10.60;51.90
12115;DHT22;6121;49.810;6.418;2023-04-03T16:09:08;10.60;51.80
12115;DHT22;6121;49.810;6.418;2023-04-03T16:11:35;10.60;51.90
12115;DHT22;6121;49.810;6.418;2023-04-03T16:14:02;10.50;51.80
12115;DHT22;6121;49.810;6.418;2023-04-03T16:16:29;10.50;52.40
12115;DHT22;6121;49.810;6.418;2023-04-03T16:18:56;10.50;51.50
12115;DHT22;6121;49.810;6.418;2023-04-03T16:21:22;10.40;51.20
12115;DHT22;6121;49.810;6.418;2023-04-03T16:23:49;10.30;51.20
12115;DHT22;6121;49.810;6.418;2023-04-03T16:26:16;10.30;50.90
12115;DHT22;6121;49.810;6.418;2023-04-03T16:28:43;10.20;51.10
12115;DHT22;6121;49.810;6.418;2023-04-03T16:31:09;10.00;51.90
12115;DHT22;6121;49.810;6.418;2023-04-03T16:33:35;10.20;52.00
12115;DHT22;6121;49.810;6.418;2023-04-03T16:36:03;10.20;51.60
12115;DHT22;6121;49.810;6.418;2023-04-03T16:38:30;10.20;51.40
12115;DHT22;6121;49.810;6.418;2023-04-03T16:40:56;10.20;51.70
12115;DHT22;6121;49.810;6.418;2023-04-03T16:43:25;10.00;51.40
12115;DHT22;6121;49.810;6.418;2023-04-03T16:45:51;10.10;51.50
12115;DHT22;6121;49.810;6.418;2023-04-03T16:48:17;9.90;52.30
12115;DHT22;6121;49.810;6.418;2023-04-03T16:50:46;9.90;52.60
12115;DHT22;6121;49.810;6.418;2023-04-03T16:53:13;9.90;52.60
12115;DHT22;6121;49.810;6.418;2023-04-03T16:55:39;9.70;51.80
12115;DHT22;6121;49.810;6.418;2023-04-03T16:58:06;9.50;52.40
12115;DHT22;6121;49.810;6.418;2023-04-03T17:00:32;9.50;52.90
12115;DHT22;6121;49.810;6.418;2023-04-03T17:02:58;9.70;52.60
12115;DHT22;6121;49.810;6.418;2023-04-03T17:05:24;9.50;52.50
12115;DHT22;6121;49.810;6.418;2023-04-03T17:07:51;9.50;52.60
12115;DHT22;6121;49.810;6.418;2023-04-03T17:10:17;9.60;52.80
12115;DHT22;6121;49.810;6.418;2023-04-03T17:12:43;9.50;52.80
12115;DHT22;6121;49.810;6.418;2023-04-03T17:15:09;9.40;52.70
12115;DHT22;6121;49.810;6.418;2023-04-03T17:17:35;9.20;53.20
12115;DHT22;6121;49.810;6.418;2023-04-03T17:20:01;9.20;53.20
12115;DHT22;6121;49.810;6.418;2023-04-03T17:22:28;9.20;52.90
12115;DHT22;6121;49.810;6.418;2023-04-03T17:24:54;9.20;52.30